Time;durP1;ratioP1;P1;durP2;ratioP2;P2;SDS_P1;SDS_P2;PMS_P1;PMS_P2;Temp;Humidity;BMP_temperature;BMP_pressure;BME280_temperature;BME280_humidity;BME280_pressure;Samples;Min_cycle;Max_cycle;Signal;HPM_P1;HPM_P2
2023/07/18 00:01:59;;;;;;;7.35;2.10;;;23.90;47.50;;;;;;5030783;28;20026;-53
2023/07/18 00:04:27;;;;;;;7.18;2.22;;;23.90;47.70;;;;;;5030612;28;20021;-48
2023/07/18 00:06:54;;;;;;;7.32;2.17;;;23.90;47.70;;;;;;5030495;28;20033;-50
2023/07/18 00:09:21;;;;;;;5.88;2.15;;;23.90;47.80;;;;;;5030208;28;20120;-50
2023/07/18 00:11:47;;;;;;;5.38;2.00;;;23.90;48.00;;;;;;5030747;28;20035;-51
2023/07/18 00:14:15;;;;;;;4.68;2.00;;;23.90;48.20;;;;;;5030158;28;20114;-48
2023/07/18 00:16:41;;;;;;;4.70;1.85;;;23.90;48.20;;;;;;5030627;28;20036;-50
2023/07/18 00:19:12;;;;;;;4.30;1.90;;;23.90;48.20;;;;;;5030021;28;20040;-45
2023/07/18 00:21:41;;;;;;;2.70;1.70;;;23.90;48.40;;;;;;5030993;28;20133;-49
2023/07/18 00:24:07;;;;;;;4.15;2.22;;;23.90;48.40;;;;;;5030157;28;20028;-48
2023/07/18 00:26:33;;;;;;;3.08;1.77;;;23.90;48.40;;;;;;5029912;28;20029;-46
2023/07/18 00:28:59;;;;;;;5.20;2.03;;;23.90;48.50;;;;;;5029893;28;20037;-50
2023/07/18 00:31:26;;;;;;;7.15;1.85;;;23.90;48.50;;;;;;5030628;28;20396;-46
2023/07/18 00:33:52;;;;;;;3.60;2.03;;;23.80;48.70;;;;;;5030226;28;20036;-48
2023/07/18 00:36:18;;;;;;;4.22;1.98;;;23.80;48.80;;;;;;5030284;28;20116;-47
2023/07/18 00:38:44;;;;;;;7.13;2.03;;;23.80;49.00;;;;;;5028718;28;20462;-49
2023/07/18 00:41:29;;;;;;;5.15;1.98;;;23.80;49.10;;;;;;5030445;28;20040;-51
2023/07/18 00:44:13;;;;;;;4.00;1.92;;;23.80;49.30;;;;;;5030146;28;20040;-48
2023/07/18 00:46:57;;;;;;;6.15;1.90;;;23.80;49.40;;;;;;5029828;28;20044;-51
2023/07/18 00:49:23;;;;;;;5.80;2.30;;;23.80;49.40;;;;;;5017784;28;20435;-52
2023/07/18 00:51:49;;;;;;;4.78;1.98;;;23.70;49.50;;;;;;5010358;28;20044;-51
2023/07/18 00:54:15;;;;;;;5.68;2.30;;;23.70;49.60;;;;;;5019649;28;20328;-50
2023/07/18 00:56:41;;;;;;;5.95;2.20;;;23.70;49.80;;;;;;5028998;28;20515;-50
2023/07/18 00:59:08;;;;;;;6.70;2.28;;;23.60;49.80;;;;;;5020410;28;20116;-50
2023/07/18 01:01:34;;;;;;;5.65;2.28;;;23.70;50.10;;;;;;5010316;28;20022;-51
2023/07/18 01:04:02;;;;;;;4.38;2.03;;;23.60;50.10;;;;;;5017188;28;20026;-49
2023/07/18 01:06:28;;;;;;;4.55;2.38;;;23.60;50.40;;;;;;5029542;28;20051;-50
2023/07/18 01:08:54;;;;;;;7.15;2.20;;;23.50;50.50;;;;;;5022504;28;20033;-51
2023/07/18 01:11:21;;;;;;;5.30;2.08;;;23.60;50.70;;;;;;5009860;28;20405;-52
2023/07/18 01:13:47;;;;;;;7.72;2.30;;;23.60;50.60;;;;;;5014602;28;20079;-51
2023/07/18 01:16:14;;;;;;;5.00;2.05;;;23.60;50.60;;;;;;5028521;28;20501;-50
2023/07/18 01:18:40;;;;;;;8.88;2.00;;;23.60;50.70;;;;;;5029104;28;20111;-51
2023/07/18 01:21:09;;;;;;;4.95;2.03;;;23.60;50.80;;;;;;5029973;28;20033;-50
2023/07/18 01:23:35;;;;;;;5.20;2.13;;;23.50;50.90;;;;;;5029448;28;20025;-46
2023/07/18 01:26:00;;;;;;;3.45;2.03;;;23.50;51.00;;;;;;5028035;28;20049;-50
2023/07/18 01:28:26;;;;;;;5.35;2.30;;;23.50;51.00;;;;;;5027936;28;20120;-52
2023/07/18 01:30:54;;;;;;;4.00;2.17;;;23.50;51.20;;;;;;5029596;28;20492;-50
2023/07/18 01:33:19;;;;;;;4.65;2.15;;;23.50;51.30;;;;;;5028130;28;20112;-51
2023/07/18 01:35:46;;;;;;;5.68;2.45;;;23.40;51.60;;;;;;5029428;28;20069;-52
2023/07/18 01:38:13;;;;;;;5.35;2.45;;;23.40;51.50;;;;;;5028377;28;20041;-53
2023/07/18 01:40:39;;;;;;;5.50;2.40;;;23.40;51.50;;;;;;5009534;28;20037;-46
2023/07/18 01:43:04;;;;;;;6.90;2.25;;;23.50;51.60;;;;;;5010006;28;20025;-52
2023/07/18 01:45:30;;;;;;;4.35;2.13;;;23.40;51.70;;;;;;5026686;28;20451;-51
2023/07/18 01:47:59;;;;;;;5.10;2.13;;;23.50;52.10;;;;;;5029357;28;20108;-51
2023/07/18 01:50:25;;;;;;;3.20;1.70;;;23.50;51.60;;;;;;5029051;28;20124;-52
2023/07/18 01:52:51;;;;;;;4.72;2.00;;;23.40;51.50;;;;;;5028167;28;20040;-51
2023/07/18 01:55:19;;;;;;;6.15;2.03;;;23.40;51.70;;;;;;5029454;28;20485;-52
2023/07/18 01:57:47;;;;;;;3.60;2.13;;;23.40;51.60;;;;;;5029411;28;20056;-49
2023/07/18 02:00:19;;;;;;;6.20;2.20;;;23.40;51.70;;;;;;5027563;28;20030;-46
2023/07/18 02:02:48;;;;;;;5.10;2.20;;;23.40;51.70;;;;;;5029378;28;20040;-46
2023/07/18 02:05:19;;;;;;;7.50;2.27;;;23.40;51.70;;;;;;5029167;28;20025;-46
2023/07/18 02:07:46;;;;;;;4.72;2.00;;;23.30;51.80;;;;;;5028993;28;20021;-46
2023/07/18 02:10:13;;;;;;;6.20;2.25;;;23.30;51.80;;;;;;5028677;28;20082;-46
2023/07/18 02:12:39;;;;;;;5.03;2.47;;;23.30;51.90;;;;;;5029160;28;20032;-47
2023/07/18 02:15:05;;;;;;;4.78;1.80;;;23.30;51.70;;;;;;5027595;28;20037;-46
2023/07/18 02:17:34;;;;;;;5.47;2.20;;;23.40;51.80;;;;;;5029380;28;20033;-46
2023/07/18 02:20:05;;;;;;;3.83;2.15;;;23.40;51.70;;;;;;5028588;28;20164;-44
2023/07/18 02:22:33;;;;;;;3.42;2.00;;;23.40;51.90;;;;;;5029639;28;20507;-45
2023/07/18 02:25:00;;;;;;;4.57;2.20;;;23.30;52.10;;;;;;5032473;28;20025;-45
2023/07/18 02:27:26;;;;;;;6.55;2.35;;;23.30;51.80;;;;;;5032240;28;20122;-46
2023/07/18 02:29:52;;;;;;;5.95;2.08;;;23.30;51.70;;;;;;5032048;28;20057;-47
2023/07/18 02:32:21;;;;;;;3.88;1.90;;;23.30;51.80;;;;;;5032402;28;20041;-45
2023/07/18 02:34:48;;;;;;;4.07;2.20;;;23.20;52.20;;;;;;5022944;28;20030;-52
2023/07/18 02:37:14;;;;;;;7.18;2.15;;;23.20;52.30;;;;;;5012914;28;20033;-51
2023/07/18 02:39:42;;;;;;;7.70;2.40;;;23.20;52.30;;;;;;5019482;28;20076;-52
2023/07/18 02:42:08;;;;;;;4.67;2.37;;;23.10;53.00;;;;;;5032130;28;20017;-50
2023/07/18 02:44:35;;;;;;;8.40;2.85;;;23.10;52.40;;;;;;5032056;28;20100;-50
2023/07/18 02:47:00;;;;;;;4.63;2.20;;;23.10;52.60;;;;;;5032061;28;20053;-51
2023/07/18 02:49:27;;;;;;;7.43;2.33;;;23.10;52.60;;;;;;5030313;28;20034;-46
2023/07/18 02:51:53;;;;;;;5.43;2.50;;;23.10;52.50;;;;;;5030870;28;20068;-49
2023/07/18 02:54:19;;;;;;;7.40;2.50;;;23.10;52.60;;;;;;5031209;28;20037;-46
2023/07/18 02:56:45;;;;;;;3.70;2.05;;;23.10;52.60;;;;;;5031905;28;20127;-47
2023/07/18 02:59:11;;;;;;;6.65;2.28;;;23.00;52.80;;;;;;5031494;28;20544;-45
2023/07/18 03:01:37;;;;;;;5.00;2.10;;;23.00;52.90;;;;;;5032184;28;20100;-48
2023/07/18 03:04:02;;;;;;;7.90;2.63;;;23.00;52.90;;;;;;5031639;28;20456;-47
2023/07/18 03:06:29;;;;;;;6.82;2.58;;;23.00;53.10;;;;;;5030430;28;20029;-45
2023/07/18 03:08:55;;;;;;;8.95;2.30;;;23.00;53.10;;;;;;5031743;28;20032;-50
2023/07/18 03:11:21;;;;;;;5.13;2.08;;;23.00;53.10;;;;;;5011292;28;20101;-52
2023/07/18 03:13:47;;;;;;;5.63;2.35;;;23.00;53.10;;;;;;5011918;28;20029;-46
2023/07/18 03:16:12;;;;;;;7.50;2.83;;;22.90;53.00;;;;;;5029682;28;20031;-49
2023/07/18 03:18:38;;;;;;;4.43;2.50;;;22.90;53.10;;;;;;5031354;28;20029;-50
2023/07/18 03:21:04;;;;;;;7.03;2.55;;;23.00;53.30;;;;;;5031381;28;20036;-46
2023/07/18 03:23:30;;;;;;;5.00;2.40;;;23.00;53.10;;;;;;5031603;28;20033;-48
2023/07/18 03:25:55;;;;;;;7.28;2.88;;;22.90;53.30;;;;;;5031055;28;20029;-47
2023/07/18 03:28:22;;;;;;;9.30;2.40;;;23.00;53.20;;;;;;5031621;28;20036;-49
2023/07/18 03:30:48;;;;;;;4.78;2.22;;;22.90;53.30;;;;;;5030884;28;20025;-47
2023/07/18 03:33:15;;;;;;;3.22;2.10;;;22.90;53.40;;;;;;5030309;28;20037;-47
2023/07/18 03:35:41;;;;;;;3.72;2.30;;;22.90;53.40;;;;;;5031184;28;20112;-49
2023/07/18 03:38:06;;;;;;;5.65;2.42;;;22.90;53.50;;;;;;5029975;28;20113;-46
2023/07/18 03:40:32;;;;;;;6.70;2.88;;;22.80;53.50;;;;;;5029163;28;20064;-47
2023/07/18 03:43:00;;;;;;;4.22;2.35;;;22.80;53.70;;;;;;5029912;28;20044;-48
2023/07/18 03:45:26;;;;;;;5.90;2.78;;;22.80;53.70;;;;;;5031318;28;20029;-46
2023/07/18 03:47:52;;;;;;;7.80;3.08;;;22.70;53.70;;;;;;5030883;28;20040;-50
2023/07/18 03:50:18;;;;;;;6.45;2.92;;;22.80;53.80;;;;;;5030474;28;20033;-50
2023/07/18 03:52:44;;;;;;;4.93;2.30;;;22.80;53.70;;;;;;5030633;28;20127;-46
2023/07/18 03:55:09;;;;;;;8.00;3.10;;;22.80;53.70;;;;;;5030738;28;20044;-45
2023/07/18 03:57:35;;;;;;;6.97;2.80;;;22.80;53.70;;;;;;5030945;28;20061;-47
2023/07/18 04:00:06;;;;;;;5.82;2.83;;;22.80;53.80;;;;;;5030203;28;20021;-48
2023/07/18 04:02:32;;;;;;;5.93;2.70;;;22.80;53.70;;;;;;5030780;28;20175;-46
2023/07/18 04:04:57;;;;;;;5.80;3.00;;;22.70;53.90;;;;;;5030538;28;20108;-50
2023/07/18 04:07:24;;;;;;;6.07;2.83;;;22.70;54.10;;;;;;5030413;28;20060;-46
2023/07/18 04:09:50;;;;;;;6.03;2.47;;;22.70;54.00;;;;;;5030248;28;20048;-47
2023/07/18 04:12:17;;;;;;;6.82;2.70;;;22.70;54.10;;;;;;5030603;28;20500;-47
2023/07/18 04:14:43;;;;;;;13.25;2.83;;;22.60;54.20;;;;;;5030372;28;20090;-45
2023/07/18 04:17:09;;;;;;;12.73;2.97;;;22.70;54.10;;;;;;5030618;28;20500;-44
2023/07/18 04:19:35;;;;;;;5.10;2.30;;;22.70;54.10;;;;;;5030026;28;20596;-45
2023/07/18 04:22:02;;;;;;;6.57;2.63;;;22.70;54.20;;;;;;5030355;28;20076;-47
2023/07/18 04:24:31;;;;;;;6.13;2.63;;;22.60;54.20;;;;;;5030461;28;20025;-44
2023/07/18 04:26:57;;;;;;;6.10;3.00;;;22.70;54.30;;;;;;5010388;28;20489;-48
2023/07/18 04:29:24;;;;;;;6.35;2.80;;;22.70;54.30;;;;;;5011010;28;20113;-47
2023/07/18 04:31:50;;;;;;;8.07;2.17;;;22.60;54.30;;;;;;5029560;28;20423;-52
2023/07/18 04:34:15;;;;;;;5.70;2.80;;;22.70;54.30;;;;;;5030356;28;20038;-52
2023/07/18 04:36:42;;;;;;;6.68;2.63;;;22.60;54.30;;;;;;5029810;28;20033;-51
2023/07/18 04:39:09;;;;;;;7.05;2.65;;;22.70;54.30;;;;;;5030048;28;20033;-45
2023/07/18 04:41:35;;;;;;;7.85;2.35;;;22.70;54.30;;;;;;5029965;28;20104;-49
2023/07/18 04:44:01;;;;;;;4.60;2.60;;;22.70;54.20;;;;;;5030279;28;20025;-48
2023/07/18 04:46:27;;;;;;;8.30;2.75;;;22.70;54.30;;;;;;5029266;28;20033;-47
2023/07/18 04:48:53;;;;;;;7.85;2.65;;;22.70;54.20;;;;;;5029863;28;20037;-45
2023/07/18 04:51:19;;;;;;;7.38;2.83;;;22.70;54.20;;;;;;5015301;28;20087;-50
2023/07/18 04:53:44;;;;;;;12.40;2.80;;;22.60;54.30;;;;;;5010163;28;20057;-48
2023/07/18 04:56:11;;;;;;;7.13;2.78;;;22.70;54.30;;;;;;5009156;28;20116;-47
2023/07/18 04:58:36;;;;;;;5.32;2.88;;;22.70;54.30;;;;;;5009998;28;20026;-45
2023/07/18 05:01:02;;;;;;;11.43;2.78;;;22.70;54.30;;;;;;5020595;28;20107;-47
2023/07/18 05:03:28;;;;;;;6.95;2.50;;;22.70;54.20;;;;;;5029834;28;20309;-47
2023/07/18 05:05:56;;;;;;;9.10;2.50;;;22.60;54.20;;;;;;5029259;28;20404;-51
2023/07/18 05:08:22;;;;;;;8.15;2.88;;;22.70;54.30;;;;;;5029776;28;20025;-52
2023/07/18 05:10:48;;;;;;;11.27;3.28;;;22.70;54.20;;;;;;5014341;28;20485;-51
2023/07/18 05:13:14;;;;;;;11.05;3.38;;;22.70;54.20;;;;;;5016738;28;20124;-50
2023/07/18 05:15:43;;;;;;;9.10;3.05;;;22.70;54.30;;;;;;5017147;28;20549;-48
2023/07/18 05:18:09;;;;;;;7.68;3.10;;;22.60;54.20;;;;;;5017470;28;20246;-45
2023/07/18 05:20:35;;;;;;;10.05;3.60;;;22.70;54.30;;;;;;5019738;28;20120;-49
2023/07/18 05:23:01;;;;;;;6.57;2.88;;;22.60;54.30;;;;;;5017880;28;20109;-45
2023/07/18 05:25:27;;;;;;;12.00;3.00;;;22.70;54.30;;;;;;5018846;28;20017;-48
2023/07/18 05:27:53;;;;;;;6.25;2.90;;;22.60;54.50;;;;;;5015341;28;20542;-49
2023/07/18 05:30:20;;;;;;;9.38;2.92;;;22.60;54.70;;;;;;5019486;28;20118;-49
2023/07/18 05:32:46;;;;;;;7.35;2.63;;;22.60;54.60;;;;;;5017607;28;20489;-48
2023/07/18 05:35:15;;;;;;;8.70;2.60;;;22.60;54.60;;;;;;5019051;28;20446;-47
2023/07/18 05:37:42;;;;;;;8.02;2.90;;;22.70;54.50;;;;;;5017787;28;20505;-48
2023/07/18 05:40:11;;;;;;;8.82;2.58;;;22.70;54.60;;;;;;5018119;28;20116;-50
2023/07/18 05:42:38;;;;;;;7.75;2.88;;;22.60;54.60;;;;;;5013241;28;20025;-52
2023/07/18 05:45:07;;;;;;;8.57;2.70;;;22.70;54.70;;;;;;5020893;28;20075;-48
2023/07/18 05:47:34;;;;;;;9.40;3.00;;;22.70;54.80;;;;;;5012330;28;20517;-45
2023/07/18 05:50:00;;;;;;;5.60;2.50;;;22.70;54.90;;;;;;5020714;28;20041;-48
2023/07/18 05:52:26;;;;;;;8.88;2.80;;;22.70;55.00;;;;;;5020020;28;20030;-49
2023/07/18 05:54:52;;;;;;;5.65;2.35;;;22.70;55.00;;;;;;5021097;28;20026;-49
2023/07/18 05:57:18;;;;;;;7.30;3.03;;;22.70;54.80;;;;;;5019624;28;20030;-52
2023/07/18 05:59:45;;;;;;;7.07;2.80;;;22.70;54.70;;;;;;5020931;28;20052;-48
2023/07/18 06:02:11;;;;;;;9.27;3.20;;;22.70;54.60;;;;;;5021026;28;20033;-47
2023/07/18 06:04:37;;;;;;;5.70;2.63;;;22.70;54.50;;;;;;5021430;28;20022;-50
2023/07/18 06:07:04;;;;;;;10.43;2.78;;;22.70;54.60;;;;;;5020583;28;20080;-46
2023/07/18 06:09:30;;;;;;;8.55;2.88;;;22.70;54.60;;;;;;5023458;28;20121;-45
2023/07/18 06:11:55;;;;;;;7.88;2.90;;;22.80;54.80;;;;;;5025956;28;20144;-50
2023/07/18 06:14:21;;;;;;;8.73;2.92;;;22.70;54.80;;;;;;5023170;28;20032;-49
2023/07/18 06:16:47;;;;;;;8.45;2.97;;;22.80;54.60;;;;;;5026729;28;20036;-50
2023/07/18 06:19:13;;;;;;;8.80;2.70;;;22.70;54.50;;;;;;5021171;28;20348;-49
2023/07/18 06:21:39;;;;;;;9.43;3.15;;;22.70;54.50;;;;;;5027391;28;20402;-48
2023/07/18 06:24:06;;;;;;;6.15;2.40;;;22.80;54.50;;;;;;5020916;28;20033;-46
2023/07/18 06:26:31;;;;;;;12.15;3.22;;;22.80;54.60;;;;;;5027335;28;20076;-47
2023/07/18 06:28:57;;;;;;;10.82;2.50;;;22.80;54.70;;;;;;5020588;28;20022;-45
2023/07/18 06:31:23;;;;;;;5.60;2.63;;;22.80;54.40;;;;;;5027028;28;20434;-46
2023/07/18 06:33:53;;;;;;;7.85;3.00;;;22.80;54.70;;;;;;5020736;28;20030;-44
2023/07/18 06:36:20;;;;;;;15.20;2.80;;;22.80;54.90;;;;;;5014702;28;20622;-46
2023/07/18 06:38:46;;;;;;;13.80;3.20;;;22.90;54.80;;;;;;5018106;28;20029;-45
2023/07/18 06:41:12;;;;;;;8.70;2.90;;;22.90;54.80;;;;;;5016227;28;20029;-44
2023/07/18 06:43:39;;;;;;;11.30;3.97;;;22.90;54.70;;;;;;5019072;28;20033;-49
2023/07/18 06:46:04;;;;;;;7.57;3.80;;;22.90;54.70;;;;;;5011806;28;20112;-46
2023/07/18 06:48:30;;;;;;;8.48;3.40;;;22.90;54.90;;;;;;5011975;28;20124;-51
2023/07/18 06:50:59;;;;;;;11.40;3.22;;;22.90;54.90;;;;;;5012178;28;20130;-47
2023/07/18 06:53:25;;;;;;;19.60;3.50;;;23.00;54.80;;;;;;5011239;28;20468;-49
2023/07/18 06:55:51;;;;;;;14.05;3.25;;;23.00;55.00;;;;;;5046484;23;20048;-40
2023/07/18 06:58:18;;;;;;;9.85;3.05;;;23.00;54.60;;;;;;5050141;28;20460;-39
2023/07/18 07:00:45;;;;;;;8.13;2.53;;;23.00;54.50;;;;;;5051374;28;20510;-41
2023/07/18 07:03:11;;;;;;;8.35;3.00;;;23.10;54.70;;;;;;5051565;28;20044;-42
2023/07/18 07:05:38;;;;;;;11.02;2.95;;;23.20;54.60;;;;;;5051478;28;20404;-42
2023/07/18 07:08:08;;;;;;;9.35;2.90;;;23.30;54.90;;;;;;5049081;28;20025;-42
2023/07/18 07:10:41;;;;;;;11.55;2.72;;;23.40;54.30;;;;;;5046591;28;20032;-38
2023/07/18 07:13:08;;;;;;;10.30;2.92;;;23.50;54.30;;;;;;5050991;28;20400;-41
2023/07/18 07:15:35;;;;;;;15.98;3.75;;;23.60;54.70;;;;;;5049999;28;20029;-44
2023/07/18 07:18:04;;;;;;;10.40;3.28;;;23.60;54.10;;;;;;5050825;28;20052;-41
2023/07/18 07:20:31;;;;;;;12.15;3.00;;;23.60;54.50;;;;;;5048145;28;20037;-42
2023/07/18 07:22:57;;;;;;;9.13;3.67;;;23.80;54.30;;;;;;5050304;28;20082;-43
2023/07/18 07:25:26;;;;;;;11.57;3.30;;;23.80;56.10;;;;;;5047856;28;20392;-42
2023/07/18 07:27:52;;;;;;;14.82;3.65;;;23.80;55.20;;;;;;5049981;28;20056;-41
2023/07/18 07:30:18;;;;;;;8.50;3.15;;;23.80;55.00;;;;;;5053777;28;20063;-41
2023/07/18 07:32:47;;;;;;;10.20;3.00;;;23.80;54.90;;;;;;5050491;28;20107;-41
2023/07/18 07:35:14;;;;;;;10.15;3.20;;;23.80;54.70;;;;;;5049588;28;20112;-41
2023/07/18 07:37:40;;;;;;;9.02;3.10;;;23.80;54.70;;;;;;5032343;28;20388;-41
2023/07/18 07:40:11;;;;;;;14.98;3.08;;;23.80;54.70;;;;;;5049386;28;20044;-42
2023/07/18 07:42:42;;;;;;;14.27;3.65;;;23.80;55.70;;;;;;5068289;28;20020;-47
2023/07/18 07:45:08;;;;;;;10.23;3.08;;;23.90;55.10;;;;;;5055135;28;20079;-41
2023/07/18 07:47:34;;;;;;;6.50;2.75;;;23.90;55.40;;;;;;5050532;28;20021;-42
2023/07/18 07:50:01;;;;;;;13.60;3.70;;;23.90;55.40;;;;;;5049674;28;20049;-41
2023/07/18 07:52:31;;;;;;;15.63;3.40;;;23.90;55.10;;;;;;5050199;28;20043;-42
2023/07/18 07:54:57;;;;;;;10.80;2.85;;;23.90;54.80;;;;;;5048143;28;20515;-41
2023/07/18 07:57:23;;;;;;;11.10;3.42;;;23.90;55.10;;;;;;5049805;28;20397;-41
2023/07/18 07:59:50;;;;;;;15.38;3.53;;;23.90;55.20;;;;;;5047718;28;20086;-41
2023/07/18 08:02:19;;;;;;;13.52;3.42;;;23.90;55.10;;;;;;5049875;28;20103;-41
2023/07/18 08:04:46;;;;;;;9.32;3.05;;;23.90;55.20;;;;;;5058837;28;20025;-42
2023/07/18 08:07:12;;;;;;;11.25;3.25;;;23.90;55.30;;;;;;5049470;28;20411;-41
2023/07/18 08:09:39;;;;;;;7.85;3.08;;;23.90;55.30;;;;;;5049505;28;20048;-41
2023/07/18 08:12:06;;;;;;;7.93;3.08;;;24.00;55.10;;;;;;5050267;28;20288;-41
2023/07/18 08:14:33;;;;;;;11.13;3.28;;;24.00;55.40;;;;;;5048327;28;20036;-42
2023/07/18 08:16:59;;;;;;;9.23;3.08;;;24.00;55.20;;;;;;5049507;28;20029;-41
2023/07/18 08:19:26;;;;;;;12.70;3.10;;;24.00;55.00;;;;;;5047003;28;20071;-44
2023/07/18 08:21:52;;;;;;;15.13;3.72;;;24.00;55.50;;;;;;5048651;28;20044;-42
2023/07/18 08:24:17;;;;;;;8.20;2.97;;;24.00;55.50;;;;;;5045950;28;20022;-42
2023/07/18 08:26:43;;;;;;;10.65;3.15;;;24.00;55.10;;;;;;5049446;28;20032;-44
2023/07/18 08:29:09;;;;;;;7.85;2.83;;;24.00;55.20;;;;;;5048852;28;20029;-43
2023/07/18 08:31:35;;;;;;;11.40;2.88;;;24.00;55.00;;;;;;5049231;28;20020;-41
2023/07/18 08:34:01;;;;;;;7.90;2.88;;;24.00;55.10;;;;;;5048052;28;20028;-42
2023/07/18 08:36:29;;;;;;;8.40;3.15;;;24.00;55.40;;;;;;5055040;28;20029;-41
2023/07/18 08:38:55;;;;;;;9.02;3.22;;;24.00;55.40;;;;;;5049042;28;20492;-43
2023/07/18 08:41:21;;;;;;;8.48;3.00;;;24.00;55.20;;;;;;5045844;28;20047;-43
2023/07/18 08:43:48;;;;;;;10.95;3.00;;;24.00;55.10;;;;;;5049285;28;20083;-42
2023/07/18 08:46:15;;;;;;;14.20;3.03;;;24.00;55.00;;;;;;5045603;28;20037;-43
2023/07/18 08:48:44;;;;;;;8.27;2.60;;;24.10;55.00;;;;;;5056671;28;20029;-42
2023/07/18 08:51:12;;;;;;;14.38;3.22;;;24.10;55.00;;;;;;5048518;28;20520;-42
2023/07/18 08:53:41;;;;;;;8.80;3.15;;;24.10;55.10;;;;;;5048780;28;20102;-43
2023/07/18 08:56:10;;;;;;;10.52;2.88;;;24.00;55.20;;;;;;5045747;28;20029;-42
2023/07/18 08:58:37;;;;;;;6.15;2.40;;;24.10;55.30;;;;;;5063776;28;20040;-42
2023/07/18 09:01:08;;;;;;;26.20;4.25;;;24.10;55.10;;;;;;5061486;28;20033;-42
2023/07/18 09:03:35;;;;;;;9.25;2.70;;;24.10;55.00;;;;;;5048991;28;20021;-42
2023/07/18 09:06:15;;;;;;;13.68;2.70;;;24.10;55.00;;;;;;5047604;28;20511;-42
2023/07/18 09:08:43;;;;;;;9.05;2.95;;;24.10;55.00;;;;;;5048545;28;20403;-42
2023/07/18 09:11:12;;;;;;;7.03;2.20;;;24.10;54.90;;;;;;5048027;28;20408;-42
2023/07/18 09:13:40;;;;;;;7.93;3.20;;;24.10;55.00;;;;;;5048660;28;20480;-42
2023/07/18 09:16:22;;;;;;;13.77;3.30;;;24.10;55.00;;;;;;5048513;28;20056;-41
2023/07/18 09:18:53;;;;;;;9.05;3.03;;;24.10;55.00;;;;;;5046282;28;20536;-44
2023/07/18 09:21:20;;;;;;;7.50;2.63;;;24.20;55.00;;;;;;5048220;28;20122;-42
2023/07/18 09:23:47;;;;;;;12.63;2.70;;;24.20;55.00;;;;;;5044413;28;20025;-42
2023/07/18 09:26:14;;;;;;;6.43;2.70;;;24.20;54.90;;;;;;5063482;28;20036;-45
2023/07/18 09:28:41;;;;;;;6.38;2.67;;;24.20;54.90;;;;;;5066193;28;20448;-43
2023/07/18 09:31:15;;;;;;;6.70;2.72;;;24.20;54.90;;;;;;5052540;28;20025;-44
2023/07/18 09:33:41;;;;;;;7.20;2.60;;;24.20;54.90;;;;;;5049507;28;20472;-41
2023/07/18 09:36:16;;;;;;;9.25;2.55;;;24.20;54.90;;;;;;5050094;28;20029;-41
2023/07/18 09:38:45;;;;;;;12.55;2.65;;;24.20;54.90;;;;;;5052429;28;20021;-41
2023/07/18 09:41:11;;;;;;;10.60;2.65;;;24.20;55.00;;;;;;5048803;28;20171;-42
2023/07/18 09:43:38;;;;;;;12.90;2.90;;;24.20;55.00;;;;;;5052568;28;20528;-47
2023/07/18 09:46:05;;;;;;;13.27;2.78;;;24.20;54.90;;;;;;5064912;28;20028;-45
2023/07/18 09:48:32;;;;;;;8.00;2.63;;;24.20;54.90;;;;;;5051390;28;20025;-40
2023/07/18 09:51:02;;;;;;;7.82;2.60;;;24.20;55.00;;;;;;5050855;28;20036;-45
2023/07/18 09:53:30;;;;;;;9.60;3.38;;;24.20;54.90;;;;;;5052362;28;20116;-42
2023/07/18 09:55:58;;;;;;;11.13;2.83;;;24.20;55.00;;;;;;5049587;28;20074;-44
2023/07/18 09:58:25;;;;;;;8.38;2.42;;;24.20;55.00;;;;;;5051890;28;20551;-47
2023/07/18 10:00:53;;;;;;;7.00;2.55;;;24.20;55.00;;;;;;5048306;28;20507;-42
2023/07/18 10:03:19;;;;;;;8.55;2.65;;;24.20;55.00;;;;;;5051825;28;20021;-46
2023/07/18 10:05:45;;;;;;;8.50;2.92;;;24.20;54.90;;;;;;5051580;28;20385;-45
2023/07/18 10:08:11;;;;;;;8.60;2.55;;;24.20;54.80;;;;;;5051998;28;20033;-41
2023/07/18 10:10:37;;;;;;;6.03;2.30;;;24.20;54.90;;;;;;5050455;28;20029;-44
2023/07/18 10:13:03;;;;;;;8.30;2.33;;;24.20;55.00;;;;;;5051928;28;20033;-43
2023/07/18 10:15:29;;;;;;;6.70;2.78;;;24.20;54.90;;;;;;5049274;28;20029;-43
2023/07/18 10:18:14;;;;;;;6.88;2.50;;;24.20;54.80;;;;;;5051644;28;20148;-44
2023/07/18 10:20:40;;;;;;;3.88;2.08;;;24.30;54.80;;;;;;5047333;28;20392;-42
2023/07/18 10:23:07;;;;;;;5.72;2.30;;;24.30;54.80;;;;;;5047722;28;20496;-43
2023/07/18 10:25:32;;;;;;;6.82;2.17;;;24.20;54.80;;;;;;5050989;28;20017;-46
2023/07/18 10:27:59;;;;;;;4.13;1.85;;;24.30;54.80;;;;;;5051667;28;20029;-44
2023/07/18 10:30:38;;;;;;;8.65;2.58;;;24.30;54.70;;;;;;5049434;28;20475;-45
2023/07/18 10:33:07;;;;;;;5.68;2.22;;;24.30;54.70;;;;;;5048691;28;20404;-44
2023/07/18 10:35:39;;;;;;;6.28;2.55;;;24.20;54.70;;;;;;5048121;28;20025;-44
2023/07/18 10:38:06;;;;;;;5.65;2.40;;;24.30;54.70;;;;;;5047602;28;20079;-42
2023/07/18 10:40:42;;;;;;;8.13;2.60;;;24.20;54.70;;;;;;5050710;28;20032;-43
2023/07/18 10:43:10;;;;;;;10.43;2.40;;;24.30;54.70;;;;;;5050960;28;20025;-42
2023/07/18 10:45:38;;;;;;;11.05;2.17;;;24.30;54.70;;;;;;5050240;28;20090;-44
2023/07/18 10:48:13;;;;;;;6.05;2.35;;;24.30;54.70;;;;;;5051670;28;20033;-41
2023/07/18 10:50:40;;;;;;;6.60;2.47;;;24.30;54.70;;;;;;5031092;28;20571;-41
2023/07/18 10:53:13;;;;;;;7.63;2.17;;;24.20;54.60;;;;;;5046997;28;20032;-41
2023/07/18 10:55:39;;;;;;;5.72;2.17;;;24.30;54.60;;;;;;5047988;28;20043;-41
2023/07/18 10:58:16;;;;;;;8.10;2.70;;;24.30;54.60;;;;;;5050510;28;20032;-41
2023/07/18 11:00:42;;;;;;;6.75;2.20;;;24.30;54.70;;;;;;5050836;28;20148;-41
2023/07/18 11:03:31;;;;;;;7.75;2.03;;;24.30;54.70;;;;;;5051078;28;20071;-41
2023/07/18 11:05:57;;;;;;;9.35;2.45;;;24.30;54.60;;;;;;5049380;28;20043;-41
2023/07/18 11:08:27;;;;;;;15.50;2.60;;;24.30;54.60;;;;;;5050855;28;20100;-43
2023/07/18 11:10:54;;;;;;;8.43;2.38;;;24.30;54.60;;;;;;5060914;28;20021;-41
2023/07/18 11:13:20;;;;;;;9.35;2.17;;;24.20;54.50;;;;;;5048419;28;20503;-40
2023/07/18 11:15:45;;;;;;;4.68;2.00;;;24.20;54.60;;;;;;5031074;28;20123;-42
2023/07/18 11:18:11;;;;;;;8.85;2.35;;;24.30;54.70;;;;;;5032741;28;20080;-41
2023/07/18 11:20:38;;;;;;;7.68;2.05;;;24.30;54.60;;;;;;5052045;28;20057;-42
2023/07/18 11:23:04;;;;;;;6.50;2.30;;;24.20;54.60;;;;;;5050769;28;20032;-41
2023/07/18 11:25:30;;;;;;;4.10;1.90;;;24.30;54.80;;;;;;5049434;28;20040;-42
2023/07/18 11:27:56;;;;;;;10.95;2.47;;;24.20;54.60;;;;;;5049921;28;20485;-42
2023/07/18 11:30:22;;;;;;;10.18;2.53;;;24.30;54.70;;;;;;5049084;28;20029;-41
2023/07/18 11:32:48;;;;;;;5.97;2.20;;;24.30;54.70;;;;;;5050101;28;20512;-41
2023/07/18 11:35:21;;;;;;;11.65;2.30;;;24.30;54.70;;;;;;5049360;28;20036;-42
2023/07/18 11:37:51;;;;;;;10.10;2.05;;;24.30;54.80;;;;;;5050220;28;20394;-41
2023/07/18 11:40:20;;;;;;;6.22;2.40;;;24.30;54.80;;;;;;5049713;28;20025;-43
2023/07/18 11:42:48;;;;;;;10.77;2.17;;;24.30;54.80;;;;;;5050153;28;20484;-44
2023/07/18 11:45:22;;;;;;;5.28;1.90;;;24.30;54.90;;;;;;5048722;28;20404;-41
2023/07/18 11:47:53;;;;;;;6.15;1.95;;;24.30;54.80;;;;;;5045906;28;20037;-44
2023/07/18 11:50:20;;;;;;;5.18;2.50;;;24.30;54.80;;;;;;5048883;28;20043;-41
2023/07/18 11:52:50;;;;;;;6.85;2.10;;;24.30;54.70;;;;;;5032614;28;20029;-42
2023/07/18 11:55:18;;;;;;;6.90;2.20;;;24.30;54.80;;;;;;5049504;28;20442;-41
2023/07/18 11:57:45;;;;;;;6.65;2.20;;;24.30;54.70;;;;;;5046320;28;20532;-42
2023/07/18 12:00:15;;;;;;;7.20;2.17;;;24.30;54.70;;;;;;5031714;28;20029;-41
2023/07/18 12:02:41;;;;;;;4.00;1.77;;;24.30;54.70;;;;;;5049496;28;20487;-42
2023/07/18 12:05:08;;;;;;;4.43;1.98;;;24.30;54.70;;;;;;5048162;28;20033;-44
2023/07/18 12:07:34;;;;;;;6.93;2.20;;;24.30;54.70;;;;;;5046701;28;20075;-40
2023/07/18 12:10:01;;;;;;;5.07;2.08;;;24.30;54.60;;;;;;5049545;28;20060;-41
2023/07/18 12:12:27;;;;;;;6.22;2.30;;;24.30;54.70;;;;;;5046212;28;20407;-41
2023/07/18 12:14:53;;;;;;;5.30;1.92;;;24.30;54.50;;;;;;5054105;28;20032;-41
2023/07/18 12:17:19;;;;;;;4.63;2.30;;;24.30;54.60;;;;;;5048465;28;20112;-42
2023/07/18 12:19:45;;;;;;;5.93;2.10;;;24.30;54.50;;;;;;5048099;28;20455;-42
2023/07/18 12:22:12;;;;;;;4.47;2.28;;;24.30;54.50;;;;;;5047476;28;20033;-43
2023/07/18 12:24:38;;;;;;;6.00;1.88;;;24.30;54.50;;;;;;5065841;28;20028;-44
2023/07/18 12:27:05;;;;;;;8.15;2.17;;;24.30;54.60;;;;;;5054069;28;20038;-41
2023/07/18 12:29:31;;;;;;;16.75;2.60;;;24.30;54.60;;;;;;5049246;28;20469;-41
2023/07/18 12:31:57;;;;;;;6.07;1.75;;;24.30;54.70;;;;;;5046368;28;20443;-47
2023/07/18 12:34:23;;;;;;;6.45;2.10;;;24.30;54.60;;;;;;5031305;28;20031;-42
2023/07/18 12:36:50;;;;;;;6.57;2.00;;;24.30;54.50;;;;;;5049138;28;20029;-48
2023/07/18 12:39:16;;;;;;;6.65;2.30;;;24.30;54.50;;;;;;5048892;28;20037;-43
2023/07/18 12:41:42;;;;;;;8.70;2.30;;;24.30;54.60;;;;;;5047937;28;20059;-47
2023/07/18 12:44:11;;;;;;;8.07;2.05;;;24.30;54.60;;;;;;5049255;28;20021;-45
2023/07/18 12:46:36;;;;;;;7.68;2.05;;;24.30;54.60;;;;;;5045663;28;20028;-44